Time;durP1;ratioP1;P1;durP2;ratioP2;P2;SDS_P1;SDS_P2;PMS_P1;PMS_P2;Temp;Humidity;BMP_temperature;BMP_pressure;BME280_temperature;BME280_humidity;BME280_pressure;Samples;Min_cycle;Max_cycle;Signal;HPM_P1;HPM_P2
2023/10/27 00:01:10;;;;;;;6.82;5.50;;;;;;;12.33;84.97;90494.16;2054967;69;20208;-79
2023/10/27 00:03:36;;;;;;;8.02;6.05;;;;;;;12.50;84.20;90486.69;2054677;70;20162;-78
2023/10/27 00:06:02;;;;;;;9.27;6.03;;;;;;;12.57;83.24;90490.38;2055219;70;20509;-79
2023/10/27 00:08:28;;;;;;;8.60;6.05;;;;;;;12.49;84.09;90493.75;2055051;69;20138;-79
2023/10/27 00:10:54;;;;;;;10.30;6.32;;;;;;;12.50;84.35;90488.81;2055349;69;20145;-81
2023/10/27 00:13:21;;;;;;;9.15;6.32;;;;;;;12.58;83.23;90492.50;2055201;69;20606;-81
2023/10/27 00:15:47;;;;;;;10.40;6.82;;;;;;;12.39;84.69;90485.09;2054661;70;20169;-81
2023/10/27 00:18:14;;;;;;;12.23;6.90;;;;;;;11.98;86.66;90484.31;2055171;69;20158;-81
2023/10/27 00:20:40;;;;;;;10.15;6.65;;;;;;;12.28;85.90;90481.38;2057475;69;20157;-81
2023/10/27 00:23:06;;;;;;;13.13;7.95;;;;;;;12.19;86.62;90486.16;2055004;69;20157;-81
2023/10/27 00:25:32;;;;;;;12.57;8.57;;;;;;;12.11;87.15;90485.28;2054524;69;20691;-79
2023/10/27 00:27:58;;;;;;;8.43;6.70;;;;;;;12.34;86.20;90486.41;2054015;70;20161;-80
2023/10/27 00:30:24;;;;;;;12.68;7.68;;;;;;;12.37;86.19;90473.75;2054739;69;20154;-79
2023/10/27 00:32:50;;;;;;;9.30;7.30;;;;;;;12.40;85.46;90473.13;2054818;69;20198;-80
2023/10/27 00:35:16;;;;;;;11.55;7.70;;;;;;;12.46;85.08;90478.16;2054906;69;20148;-80
2023/10/27 00:37:42;;;;;;;13.60;7.72;;;;;;;12.52;84.41;90478.28;2053882;69;20153;-79
2023/10/27 00:40:09;;;;;;;9.23;7.43;;;;;;;12.58;84.41;90475.56;2054263;70;20666;-80
2023/10/27 00:42:35;;;;;;;10.82;7.00;;;;;;;12.60;83.81;90466.41;2054754;69;20134;-80
2023/10/27 00:45:05;;;;;;;10.15;7.68;;;;;;;12.59;84.80;90467.81;2054978;69;20195;-80
2023/10/27 00:47:36;;;;;;;11.52;7.65;;;;;;;12.55;85.55;90464.91;2054382;69;20213;-78
2023/10/27 00:50:03;;;;;;;10.48;7.57;;;;;;;12.53;85.28;90470.53;2051629;70;20130;-78
2023/10/27 00:52:31;;;;;;;12.60;7.88;;;;;;;12.63;84.68;90473.53;2051350;70;20153;-77
2023/10/27 00:54:58;;;;;;;13.05;8.35;;;;;;;12.61;85.06;90470.69;2054031;70;20153;-80
2023/10/27 00:57:27;;;;;;;10.50;7.65;;;;;;;12.61;85.10;90473.50;2056981;69;20138;-80
2023/10/27 00:59:56;;;;;;;12.23;8.63;;;;;;;12.63;84.83;90468.59;2054712;70;20165;-79
2023/10/27 01:02:22;;;;;;;13.82;8.55;;;;;;;12.64;84.76;90472.84;2051383;70;20697;-81
2023/10/27 01:04:49;;;;;;;12.05;8.75;;;;;;;12.59;84.53;90471.34;2053525;70;20648;-81
2023/10/27 01:07:16;;;;;;;11.63;8.43;;;;;;;12.50;85.29;90472.59;2054759;69;20149;-80
2023/10/27 01:09:42;;;;;;;16.15;8.68;;;;;;;12.52;85.28;90469.13;2054655;70;20162;-80
2023/10/27 01:12:07;;;;;;;12.38;9.02;;;;;;;12.53;85.87;90473.34;2054971;70;20630;-79
2023/10/27 01:14:33;;;;;;;12.80;9.70;;;;;;;12.41;85.39;90480.19;2054633;70;20281;-77
2023/10/27 01:16:59;;;;;;;13.20;9.77;;;;;;;12.51;84.76;90488.16;2051391;70;20192;-79
2023/10/27 01:19:25;;;;;;;14.55;10.13;;;;;;;12.54;85.25;90483.97;2054394;69;20150;-78
2023/10/27 01:21:51;;;;;;;15.52;10.45;;;;;;;12.55;85.07;90481.84;2051460;70;20130;-78
2023/10/27 01:24:17;;;;;;;16.58;11.25;;;;;;;12.41;86.17;90488.66;2054016;70;20154;-79
2023/10/27 01:26:43;;;;;;;17.45;11.93;;;;;;;12.04;88.72;90483.72;2051608;70;20610;-79
2023/10/27 01:29:09;;;;;;;13.27;10.38;;;;;;;12.27;86.71;90490.50;2054217;69;20138;-79
2023/10/27 01:31:34;;;;;;;15.48;11.30;;;;;;;12.39;87.18;90493.56;2054717;69;20577;-80
2023/10/27 01:34:03;;;;;;;15.10;10.50;;;;;;;12.51;85.56;90493.06;2055168;69;20149;-79
2023/10/27 01:36:29;;;;;;;13.15;10.43;;;;;;;12.49;84.75;90482.47;2054871;69;20148;-79
2023/10/27 01:38:55;;;;;;;14.82;9.95;;;;;;;12.52;85.87;90494.50;2054523;69;20134;-79
2023/10/27 01:41:21;;;;;;;14.02;10.40;;;;;;;12.41;86.46;90497.13;2054597;69;20589;-80
2023/10/27 01:43:46;;;;;;;13.90;10.32;;;;;;;12.26;86.66;90509.53;2054336;69;20180;-79
2023/10/27 01:46:13;;;;;;;14.60;10.25;;;;;;;12.15;87.88;90514.28;2054666;69;20169;-78
2023/10/27 01:48:39;;;;;;;13.88;10.68;;;;;;;12.21;88.07;90508.75;2053971;70;20173;-77
2023/10/27 01:51:05;;;;;;;14.98;11.57;;;;;;;12.31;87.76;90525.16;2054614;70;20165;-77
2023/10/27 01:53:31;;;;;;;14.85;11.55;;;;;;;11.75;90.47;90516.94;2054413;69;20317;-78
2023/10/27 01:55:57;;;;;;;14.65;10.68;;;;;;;11.96;90.73;90523.75;2056856;69;20903;-79
2023/10/27 01:58:27;;;;;;;15.35;11.18;;;;;;;12.21;89.18;90530.59;2054484;69;20142;-79
2023/10/27 02:00:54;;;;;;;17.92;11.15;;;;;;;12.29;88.57;90533.59;2054614;69;20141;-78
2023/10/27 02:03:19;;;;;;;13.73;10.85;;;;;;;12.38;87.60;90538.00;2054053;70;20169;-79
2023/10/27 02:05:48;;;;;;;13.43;10.93;;;;;;;12.46;87.31;90540.97;2054563;69;20612;-82
2023/10/27 02:08:14;;;;;;;13.77;10.38;;;;;;;12.52;85.21;90546.00;2054945;69;20145;-82
2023/10/27 02:10:39;;;;;;;13.02;9.95;;;;;;;12.50;85.09;90548.78;2054956;69;20146;-81
2023/10/27 02:13:05;;;;;;;12.98;10.38;;;;;;;12.58;85.32;90553.88;2054400;70;20150;-82
2023/10/27 02:15:31;;;;;;;15.90;10.48;;;;;;;12.51;86.27;90561.53;2057132;69;20201;-81
2023/10/27 02:17:56;;;;;;;13.43;10.52;;;;;;;12.49;86.13;90567.13;2057163;69;20146;-81
2023/10/27 02:20:22;;;;;;;13.48;9.85;;;;;;;12.49;85.89;90578.41;2055029;69;20230;-81
2023/10/27 02:22:48;;;;;;;12.18;9.95;;;;;;;12.56;85.95;90574.31;2054536;70;20533;-81
2023/10/27 02:25:13;;;;;;;10.45;8.48;;;;;;;12.59;85.49;90569.41;2051470;70;20220;-81
2023/10/27 02:27:41;;;;;;;8.55;7.53;;;;;;;12.43;86.51;90575.47;2054894;69;20219;-80
2023/10/27 02:30:08;;;;;;;7.97;6.75;;;;;;;12.57;85.41;90577.84;2054928;69;20153;-81
2023/10/27 02:32:33;;;;;;;12.57;7.63;;;;;;;12.54;86.00;90588.38;2054397;69;20177;-81
2023/10/27 02:35:00;;;;;;;9.43;6.78;;;;;;;12.54;86.15;90588.38;2054885;69;20153;-80
2023/10/27 02:37:26;;;;;;;8.75;6.53;;;;;;;12.62;85.55;90594.19;2057011;69;20595;-79
2023/10/27 02:39:52;;;;;;;7.57;5.45;;;;;;;12.58;85.22;90590.56;2056991;69;20226;-81
2023/10/27 02:42:20;;;;;;;7.32;5.53;;;;;;;12.64;85.48;90594.22;2054349;70;20146;-81
2023/10/27 02:44:45;;;;;;;9.77;5.60;;;;;;;12.60;85.62;90585.69;2054886;69;20230;-80
2023/10/27 02:47:11;;;;;;;7.93;5.55;;;;;;;12.54;86.17;90590.47;2054841;69;20148;-80
2023/10/27 02:49:38;;;;;;;7.72;5.93;;;;;;;12.61;85.44;90586.41;2054889;69;20178;-80
2023/10/27 02:52:05;;;;;;;11.05;6.78;;;;;;;12.32;86.87;90576.63;2054117;70;20165;-81
2023/10/27 02:54:30;;;;;;;12.00;9.88;;;;;;;12.52;86.34;90582.00;2054743;69;20142;-79
2023/10/27 02:56:57;;;;;;;12.88;10.05;;;;;;;12.57;86.14;90587.03;2054331;70;20186;-80
2023/10/27 02:59:23;;;;;;;8.80;7.05;;;;;;;12.55;85.39;90566.50;2054299;70;20684;-80
2023/10/27 03:01:52;;;;;;;9.18;7.57;;;;;;;12.56;85.26;90570.78;2054807;69;20154;-82
2023/10/27 03:04:19;;;;;;;9.95;7.72;;;;;;;12.56;85.86;90560.22;2054283;70;20547;-80
2023/10/27 03:06:45;;;;;;;9.15;7.13;;;;;;;12.59;86.40;90564.47;2054847;69;20526;-79
2023/10/27 03:09:11;;;;;;;9.80;5.57;;;;;;;12.57;85.72;90569.38;2054178;70;20141;-79
2023/10/27 03:11:37;;;;;;;7.43;4.70;;;;;;;12.61;85.12;90563.81;2054234;70;20158;-80
2023/10/27 03:14:03;;;;;;;7.63;4.30;;;;;;;12.48;85.24;90564.97;2054200;70;20509;-81
2023/10/27 03:16:29;;;;;;;5.53;3.70;;;;;;;12.54;85.70;90582.72;2057109;69;20158;-80
2023/10/27 03:18:55;;;;;;;5.50;4.00;;;;;;;12.59;85.90;90595.53;2054797;70;20525;-81
2023/10/27 03:21:21;;;;;;;9.38;5.80;;;;;;;12.61;84.61;90598.41;2055545;69;20267;-82
2023/10/27 03:23:47;;;;;;;7.68;6.38;;;;;;;12.47;85.51;90603.75;2055323;69;20141;-81
2023/10/27 03:26:14;;;;;;;10.85;8.23;;;;;;;12.19;88.11;90603.91;2055270;69;20629;-82
2023/10/27 03:28:42;;;;;;;11.38;8.27;;;;;;;12.17;88.67;90615.13;2055323;69;20150;-81
2023/10/27 03:31:08;;;;;;;11.10;8.30;;;;;;;12.21;87.86;90609.56;2055367;69;20660;-80
2023/10/27 03:33:34;;;;;;;22.77;17.83;;;;;;;12.11;89.05;90612.88;2055285;69;20134;-80
2023/10/27 03:36:03;;;;;;;19.52;16.70;;;;;;;12.17;88.90;90618.66;2054831;69;20146;-80
2023/10/27 03:38:28;;;;;;;15.45;13.27;;;;;;;12.16;88.74;90608.75;2055080;69;20233;-80
2023/10/27 03:40:54;;;;;;;11.23;8.95;;;;;;;12.28;88.20;90619.59;2055318;69;20298;-81
2023/10/27 03:43:20;;;;;;;12.80;10.38;;;;;;;12.33;87.90;90607.00;2057521;69;20142;-78
2023/10/27 03:45:46;;;;;;;15.38;10.23;;;;;;;12.36;88.12;90605.66;2055449;69;20184;-79
2023/10/27 03:48:14;;;;;;;12.00;9.00;;;;;;;12.45;87.03;90610.06;2055211;69;20162;-79
2023/10/27 03:50:39;;;;;;;9.50;7.78;;;;;;;12.43;86.96;90612.16;2055312;69;20220;-81
2023/10/27 03:53:05;;;;;;;8.55;6.97;;;;;;;12.49;86.27;90617.19;2055136;69;20145;-81
2023/10/27 03:55:31;;;;;;;9.75;5.95;;;;;;;12.36;86.60;90611.28;2055222;69;20138;-82
2023/10/27 03:58:12;;;;;;;6.07;4.78;;;;;;;12.49;86.88;90620.72;2055345;69;20169;-81
2023/10/27 04:00:38;;;;;;;3.85;2.75;;;;;;;12.53;85.54;90628.56;2055311;69;20165;-81
2023/10/27 04:03:03;;;;;;;3.85;1.90;;;;;;;12.47;84.21;90623.53;2055174;69;20149;-82
2023/10/27 04:05:29;;;;;;;11.20;1.80;;;;;;;12.35;85.31;90603.50;2055259;69;20150;-81
2023/10/27 04:07:55;;;;;;;2.47;1.75;;;;;;;12.47;85.55;90617.88;2055227;69;20154;-81
2023/10/27 04:10:21;;;;;;;4.15;3.08;;;;;;;12.39;85.58;90612.06;2054613;69;20149;-81
2023/10/27 04:12:47;;;;;;;4.80;1.95;;;;;;;12.41;85.04;90624.09;2054728;69;20590;-80
2023/10/27 04:15:13;;;;;;;3.35;1.77;;;;;;;12.40;85.36;90619.13;2055198;69;20143;-79
2023/10/27 04:17:38;;;;;;;2.67;1.20;;;;;;;12.31;85.37;90617.53;2055230;69;20505;-81
2023/10/27 04:20:05;;;;;;;4.03;1.30;;;;;;;12.34;85.37;90635.94;2054807;70;20571;-80
2023/10/27 04:22:30;;;;;;;4.18;1.25;;;;;;;12.33;84.85;90642.97;2055322;69;20152;-79
2023/10/27 04:24:56;;;;;;;2.50;1.10;;;;;;;12.33;85.35;90645.78;2055058;69;20134;-80
2023/10/27 04:27:22;;;;;;;2.65;1.00;;;;;;;12.29;85.55;90643.59;2055032;69;20153;-80
2023/10/27 04:29:48;;;;;;;4.47;1.00;;;;;;;12.26;85.91;90647.75;2055159;69;20613;-81
2023/10/27 04:32:15;;;;;;;2.30;1.10;;;;;;;12.30;85.23;90647.13;2055101;69;20203;-81
2023/10/27 04:34:42;;;;;;;6.03;1.10;;;;;;;12.27;85.70;90648.47;2055256;69;20146;-81
2023/10/27 04:37:09;;;;;;;3.80;1.80;;;;;;;12.20;85.72;90644.81;2051680;70;20693;-81
2023/10/27 04:39:35;;;;;;;3.47;1.13;;;;;;;12.22;85.70;90650.47;2054952;69;20145;-79
2023/10/27 04:42:02;;;;;;;4.75;2.28;;;;;;;11.58;88.01;90641.94;2054575;70;20150;-81
2023/10/27 04:44:28;;;;;;;1.83;1.50;;;;;;;11.91;85.14;90629.34;2055087;69;20146;-80
2023/10/27 04:46:53;;;;;;;2.22;1.48;;;;;;;11.82;84.93;90620.00;2054622;69;20137;-81
2023/10/27 04:49:19;;;;;;;1.67;0.82;;;;;;;11.89;82.72;90613.09;2055072;69;20154;-80
2023/10/27 04:51:45;;;;;;;1.92;1.27;;;;;;;12.04;83.86;90619.06;2055112;70;20130;-80
2023/10/27 04:54:12;;;;;;;1.40;1.20;;;;;;;12.05;84.25;90634.59;2055034;70;20138;-80
2023/10/27 04:56:38;;;;;;;1.45;0.88;;;;;;;12.09;84.09;90651.59;2055134;69;20631;-80
2023/10/27 04:59:05;;;;;;;2.70;0.90;;;;;;;11.96;84.41;90645.00;2055107;69;20140;-81
2023/10/27 05:01:32;;;;;;;5.05;1.45;;;;;;;12.06;84.16;90647.31;2055105;70;20172;-81
2023/10/27 05:03:57;;;;;;;1.42;1.20;;;;;;;12.01;83.60;90645.78;2055197;69;20182;-81
2023/10/27 05:06:23;;;;;;;1.45;1.10;;;;;;;12.01;83.37;90659.91;2055112;69;20138;-80
2023/10/27 05:08:50;;;;;;;2.10;1.50;;;;;;;12.03;83.79;90677.56;2054894;69;20201;-81
2023/10/27 05:11:17;;;;;;;2.67;1.52;;;;;;;11.98;84.27;90689.41;2055156;69;20157;-82
2023/10/27 05:13:44;;;;;;;2.22;0.82;;;;;;;12.04;83.94;90698.00;2055075;69;20570;-82
2023/10/27 05:16:10;;;;;;;2.55;0.80;;;;;;;12.00;84.96;90714.84;2051860;70;20158;-81
2023/10/27 05:18:36;;;;;;;3.05;0.90;;;;;;;11.97;84.58;90702.09;2055041;69;20218;-81
2023/10/27 05:21:03;;;;;;;4.60;1.30;;;;;;;12.00;84.22;90712.72;2055137;69;20142;-81
2023/10/27 05:23:29;;;;;;;3.97;1.60;;;;;;;11.88;84.72;90707.53;2054908;69;20149;-81
2023/10/27 05:25:55;;;;;;;4.10;1.85;;;;;;;11.79;84.88;90691.78;2055092;69;20146;-81
2023/10/27 05:28:20;;;;;;;5.93;2.92;;;;;;;11.69;85.27;90680.25;2054973;69;20157;-81
2023/10/27 05:30:50;;;;;;;8.05;3.30;;;;;;;11.87;84.70;90697.66;2055051;69;20513;-81
2023/10/27 05:33:16;;;;;;;4.97;2.70;;;;;;;11.91;84.77;90697.75;2055105;69;20134;-80
2023/10/27 05:35:41;;;;;;;2.65;1.83;;;;;;;11.89;84.99;90694.84;2055053;69;20229;-81
2023/10/27 05:38:08;;;;;;;1.85;1.55;;;;;;;11.93;84.07;90682.97;2054910;69;20289;-80
2023/10/27 05:40:34;;;;;;;3.28;1.60;;;;;;;11.86;84.49;90675.75;2054957;69;20154;-80
2023/10/27 05:43:00;;;;;;;3.90;2.00;;;;;;;11.84;84.27;90655.97;2055069;69;20149;-81
2023/10/27 05:45:25;;;;;;;3.45;2.10;;;;;;;11.87;84.58;90654.66;2054939;69;20176;-81
2023/10/27 05:47:51;;;;;;;4.88;2.50;;;;;;;11.71;84.41;90641.56;2054327;69;20526;-81
2023/10/27 05:50:16;;;;;;;2.88;2.00;;;;;;;11.66;85.03;90645.66;2054916;69;20142;-80
2023/10/27 05:52:42;;;;;;;3.08;2.25;;;;;;;11.77;84.84;90648.72;2054908;69;20533;-79
2023/10/27 05:55:08;;;;;;;5.13;3.78;;;;;;;11.68;84.83;90645.00;2054247;70;20269;-79
2023/10/27 05:57:33;;;;;;;7.32;4.68;;;;;;;11.73;84.98;90648.63;2054865;69;20209;-80
2023/10/27 05:59:59;;;;;;;7.68;4.47;;;;;;;11.51;85.41;90662.91;2055035;69;20150;-81
2023/10/27 06:02:25;;;;;;;10.15;5.25;;;;;;;11.45;86.37;90664.19;2054879;70;20598;-82
2023/10/27 06:04:51;;;;;;;8.10;4.90;;;;;;;11.64;85.42;90673.09;2057122;69;20499;-79
2023/10/27 06:07:17;;;;;;;5.95;3.65;;;;;;;11.73;83.99;90677.53;2054953;69;20220;-81
2023/10/27 06:09:44;;;;;;;6.80;3.55;;;;;;;11.74;84.83;90692.34;2054821;69;20153;-80
2023/10/27 06:12:09;;;;;;;7.63;3.40;;;;;;;11.72;84.88;90693.00;2054810;69;20145;-81
2023/10/27 06:14:35;;;;;;;7.50;3.17;;;;;;;11.73;84.95;90700.09;2054976;69;20142;-81
2023/10/27 06:17:01;;;;;;;5.60;3.13;;;;;;;11.80;84.61;90698.13;2054865;69;20577;-81
2023/10/27 06:19:27;;;;;;;7.15;4.10;;;;;;;11.76;84.76;90706.47;2057063;69;20490;-80
2023/10/27 06:22:00;;;;;;;7.97;3.72;;;;;;;11.74;84.55;90701.53;2052649;70;20145;-80
2023/10/27 06:24:25;;;;;;;5.40;3.92;;;;;;;11.83;83.76;90720.09;2054706;69;20259;-79
2023/10/27 06:26:51;;;;;;;6.85;4.53;;;;;;;11.78;84.79;90715.00;2054807;69;20513;-79
2023/10/27 06:29:17;;;;;;;6.63;3.38;;;;;;;11.88;84.54;90724.44;2054707;69;20146;-80
2023/10/27 06:31:43;;;;;;;7.15;5.32;;;;;;;11.89;81.69;90733.63;2054808;69;20173;-79
2023/10/27 06:34:10;;;;;;;10.23;6.68;;;;;;;11.79;84.55;90731.25;2054884;69;20526;-79
2023/10/27 06:36:36;;;;;;;7.90;6.03;;;;;;;11.82;84.90;90746.09;2054911;69;20154;-79
2023/10/27 06:39:02;;;;;;;9.48;6.03;;;;;;;11.92;84.52;90737.94;2054619;69;20658;-79
2023/10/27 06:41:27;;;;;;;3.83;2.60;;;;;;;11.90;84.69;90723.78;2054709;69;20233;-80
2023/10/27 06:43:53;;;;;;;4.22;2.60;;;;;;;11.92;85.07;90718.91;2054263;69;20213;-80
2023/10/27 06:46:19;;;;;;;5.68;3.70;;;;;;;12.02;85.18;90721.25;2054781;70;20551;-80
2023/10/27 06:48:44;;;;;;;2.67;1.92;;;;;;;12.12;84.35;90729.94;2054705;69;20156;-80
2023/10/27 06:51:11;;;;;;;3.90;1.90;;;;;;;12.20;84.42;90732.97;2054826;69;20633;-78
2023/10/27 06:53:36;;;;;;;6.00;2.38;;;;;;;12.10;84.48;90746.84;2054707;69;20158;-81
2023/10/27 06:56:02;;;;;;;5.20;2.90;;;;;;;12.05;85.18;90753.03;2055298;69;20177;-79
2023/10/27 06:58:28;;;;;;;6.90;3.38;;;;;;;12.11;84.72;90768.00;2055257;69;20216;-81
2023/10/27 07:00:53;;;;;;;4.32;2.50;;;;;;;12.24;83.88;90776.75;2054686;70;20149;-79
2023/10/27 07:03:20;;;;;;;2.03;1.30;;;;;;;12.03;83.83;90767.09;2055288;69;20146;-78
2023/10/27 07:05:46;;;;;;;1.75;1.30;;;;;;;11.64;84.80;90771.72;2055265;69;20142;-80
2023/10/27 07:08:11;;;;;;;9.27;6.82;;;;;;;11.35;88.70;90779.41;2054571;69;20181;-81
2023/10/27 07:10:37;;;;;;;10.50;5.70;;;;;;;11.18;89.74;90789.53;2057548;69;20172;-80
2023/10/27 07:13:03;;;;;;;6.20;4.28;;;;;;;11.50;89.28;90788.25;2055281;69;20150;-80
2023/10/27 07:15:29;;;;;;;5.95;4.00;;;;;;;11.85;86.04;90759.59;2055261;69;20158;-81
2023/10/27 07:17:54;;;;;;;5.00;3.65;;;;;;;12.26;84.90;90771.88;2055941;69;20153;-79
2023/10/27 07:20:20;;;;;;;7.03;4.25;;;;;;;12.55;84.06;90775.34;2052470;70;20612;-80
2023/10/27 07:22:45;;;;;;;4.63;3.10;;;;;;;12.55;83.40;90747.84;2055402;69;20146;-81
2023/10/27 07:25:13;;;;;;;2.78;1.60;;;;;;;12.72;84.13;90754.56;2057290;69;20162;-81
2023/10/27 07:27:39;;;;;;;1.80;1.25;;;;;;;12.75;84.33;90756.06;2054701;69;20150;-80
2023/10/27 07:30:05;;;;;;;4.10;1.27;;;;;;;12.89;84.45;90750.00;2055256;69;20140;-80
2023/10/27 07:32:31;;;;;;;1.80;1.20;;;;;;;12.92;84.21;90762.75;2055219;69;20158;-79
2023/10/27 07:34:58;;;;;;;2.97;1.20;;;;;;;12.90;83.48;90769.06;2055223;69;20629;-79
2023/10/27 07:37:24;;;;;;;1.02;0.93;;;;;;;12.79;83.83;90772.38;2055088;69;20158;-80
2023/10/27 07:39:50;;;;;;;2.58;1.33;;;;;;;12.89;83.87;90772.59;2055092;69;20154;-78
2023/10/27 07:42:17;;;;;;;2.22;1.50;;;;;;;12.92;83.54;90779.69;2057415;69;20142;-79
2023/10/27 07:44:42;;;;;;;1.73;1.30;;;;;;;12.92;82.36;90788.16;2055142;69;20156;-79
2023/10/27 07:47:08;;;;;;;2.47;1.20;;;;;;;13.04;82.27;90788.44;2055174;69;20176;-80
2023/10/27 07:49:33;;;;;;;2.17;1.45;;;;;;;13.10;81.48;90787.81;2054629;70;20130;-79
2023/10/27 07:51:59;;;;;;;3.60;1.95;;;;;;;12.80;82.07;90787.91;2055209;69;20161;-80
2023/10/27 07:54:26;;;;;;;2.13;1.58;;;;;;;13.01;82.11;90781.28;2055139;70;20205;-79
2023/10/27 07:56:52;;;;;;;1.90;1.70;;;;;;;13.04;82.17;90779.94;2055154;69;20188;-78
2023/10/27 07:59:17;;;;;;;2.95;1.77;;;;;;;13.25;80.34;90783.94;2049187;70;20184;-79
2023/10/27 08:01:43;;;;;;;2.47;1.20;;;;;;;13.46;80.70;90785.78;2055355;69;20154;-79
2023/10/27 08:04:09;;;;;;;4.05;2.00;;;;;;;13.51;81.50;90791.50;2055205;69;20166;-79
2023/10/27 08:06:34;;;;;;;4.15;1.85;;;;;;;13.61;79.71;90791.72;2055225;69;20133;-79
2023/10/27 08:09:00;;;;;;;2.00;1.80;;;;;;;13.68;80.65;90799.63;2055025;69;20177;-79
2023/10/27 08:11:26;;;;;;;3.03;2.60;;;;;;;13.75;79.29;90792.00;2054635;70;20173;-79
2023/10/27 08:13:53;;;;;;;4.00;2.90;;;;;;;13.69;80.35;90801.06;2055098;70;20169;-78
2023/10/27 08:16:19;;;;;;;2.22;2.00;;;;;;;13.56;80.29;90801.50;2054645;69;20194;-79
2023/10/27 08:18:45;;;;;;;6.32;2.15;;;;;;;13.54;80.53;90790.16;2055223;69;20165;-79
2023/10/27 08:21:10;;;;;;;1.58;1.30;;;;;;;13.54;80.61;90802.19;2055105;69;20150;-79
2023/10/27 08:23:36;;;;;;;4.82;3.33;;;;;;;13.59;80.03;90800.16;2054911;69;20525;-79
2023/10/27 08:26:03;;;;;;;4.85;2.00;;;;;;;13.73;80.17;90809.63;2055230;69;20220;-80
2023/10/27 08:28:28;;;;;;;3.13;2.40;;;;;;;13.59;81.82;90806.50;2055074;69;20241;-80
2023/10/27 08:30:56;;;;;;;2.63;1.20;;;;;;;13.23;81.37;90814.97;2055160;69;20245;-80
2023/10/27 08:33:23;;;;;;;1.63;1.15;;;;;;;13.30;80.50;90813.72;2055040;69;20185;-79
2023/10/27 08:35:49;;;;;;;1.50;0.90;;;;;;;13.68;80.53;90821.53;2055120;69;20248;-80
2023/10/27 08:38:14;;;;;;;19.30;11.93;;;;;;;13.66;78.20;90836.34;2055127;69;20514;-79
2023/10/27 08:40:42;;;;;;;9.02;4.95;;;;;;;14.02;79.13;90846.94;2055236;69;20181;-78
2023/10/27 08:43:08;;;;;;;3.65;3.03;;;;;;;14.27;79.20;90847.38;2055280;69;20134;-81
2023/10/27 08:45:35;;;;;;;3.88;2.60;;;;;;;14.44;77.78;90841.31;2055088;69;20138;-80
2023/10/27 08:48:01;;;;;;;2.63;2.13;;;;;;;14.06;78.21;90838.50;2054516;69;20161;-80
2023/10/27 08:50:32;;;;;;;2.63;2.08;;;;;;;14.27;77.92;90853.75;2055092;69;20138;-81
2023/10/27 08:52:59;;;;;;;3.10;2.08;;;;;;;14.42;79.51;90861.06;2055072;69;20233;-81
2023/10/27 08:55:25;;;;;;;3.17;1.85;;;;;;;14.36;80.52;90857.44;2054976;69;20526;-80
2023/10/27 08:57:54;;;;;;;3.63;2.58;;;;;;;14.01;78.63;90861.75;2055092;69;20169;-80
2023/10/27 09:00:20;;;;;;;2.92;2.08;;;;;;;13.21;81.23;90874.97;2054940;69;20154;-79
2023/10/27 09:02:47;;;;;;;3.83;2.22;;;;;;;13.07;81.40;90866.19;2055042;70;20130;-79
2023/10/27 09:05:13;;;;;;;2.38;1.65;;;;;;;12.94;80.88;90865.19;2055047;70;20670;-81
2023/10/27 09:07:40;;;;;;;2.83;1.75;;;;;;;13.43;80.39;90866.28;2054481;69;20164;-81
2023/10/27 09:10:09;;;;;;;0.80;0.70;;;;;;;13.75;74.57;90876.81;2054920;70;20271;-80
2023/10/27 09:12:38;;;;;;;1.35;0.80;;;;;;;14.30;74.30;90877.84;2055078;69;20144;-80
2023/10/27 09:15:06;;;;;;;1.10;1.00;;;;;;;14.76;76.17;90887.88;2054953;69;20212;-81
2023/10/27 09:17:51;;;;;;;1.10;1.00;;;;;;;15.42;77.30;90895.94;2054522;69;20145;-81
2023/10/27 09:20:20;;;;;;;1.70;0.93;;;;;;;15.36;74.24;90890.91;2055204;69;20142;-79
2023/10/27 09:23:02;;;;;;;1.98;0.55;;;;;;;15.94;67.79;90898.06;2054961;69;20138;-81
2023/10/27 09:25:34;;;;;;;0.63;0.63;;;;;;;15.83;66.44;90900.06;2055028;69;20145;-80
2023/10/27 09:28:02;;;;;;;1.13;0.77;;;;;;;16.43;65.39;90904.31;2054975;69;20145;-78
2023/10/27 09:30:30;;;;;;;0.85;0.43;;;;;;;17.11;65.15;90912.09;2054473;69;20181;-79
2023/10/27 09:33:17;;;;;;;0.45;0.43;;;;;;;16.53;61.44;90912.94;2055121;69;20146;-80
2023/10/27 09:35:48;;;;;;;1.30;0.80;;;;;;;17.57;61.96;90915.97;2054961;69;20150;-80
2023/10/27 09:38:17;;;;;;;1.27;0.85;;;;;;;17.75;58.27;90921.81;2054722;70;20701;-80
2023/10/27 09:40:44;;;;;;;2.55;1.75;;;;;;;17.65;60.47;90919.59;2054925;69;20150;-80
2023/10/27 09:43:21;;;;;;;1.45;0.90;;;;;;;18.19;58.91;90921.34;2057021;69;20142;-79
2023/10/27 09:45:54;;;;;;;0.80;0.65;;;;;;;19.03;56.56;90916.59;2054912;69;20130;-79
2023/10/27 09:48:26;;;;;;;0.95;0.65;;;;;;;18.97;57.45;90930.16;2054918;69;20236;-80
2023/10/27 09:51:16;;;;;;;4.05;2.28;;;;;;;19.39;59.02;90926.63;2057247;69;20181;-80
2023/10/27 09:53:44;;;;;;;1.30;1.10;;;;;;;19.67;57.51;90930.91;2054649;69;20281;-79
2023/10/27 09:56:12;;;;;;;1.55;1.25;;;;;;;18.96;58.46;90940.81;2057083;69;20638;-80
2023/10/27 09:58:38;;;;;;;1.38;1.00;;;;;;;19.24;57.96;90940.16;2054848;69;20244;-80
2023/10/27 10:01:05;;;;;;;5.25;2.83;;;;;;;20.36;57.57;90944.34;2054853;69;20185;-80
2023/10/27 10:03:32;;;;;;;1.10;0.82;;;;;;;20.41;55.56;90940.72;2051613;70;20133;-76
2023/10/27 10:06:21;;;;;;;2.08;1.17;;;;;;;21.17;52.06;90946.13;2057139;69;20680;-78
2023/10/27 10:09:06;;;;;;;2.58;1.20;;;;;;;21.88;51.44;90950.63;2054871;69;20150;-79
2023/10/27 10:11:55;;;;;;;1.42;1.10;;;;;;;21.71;51.55;90952.91;2057273;69;20153;-79
2023/10/27 10:14:36;;;;;;;1.55;0.70;;;;;;;22.62;51.74;90971.41;2055078;69;20150;-79
2023/10/27 10:17:04;;;;;;;3.30;1.73;;;;;;;21.80;47.53;90960.69;2057256;69;20241;-80
2023/10/27 10:19:52;;;;;;;1.80;1.10;;;;;;;23.88;48.31;90969.03;2054331;70;20241;-80
2023/10/27 10:22:42;;;;;;;0.90;0.82;;;;;;;22.89;48.52;90971.81;2054871;70;20138;-81
2023/10/27 10:25:23;;;;;;;2.78;0.90;;;;;;;23.02;46.29;90970.22;2054698;69;20511;-80
2023/10/27 10:28:07;;;;;;;2.05;0.70;;;;;;;22.57;48.08;90976.47;2055274;70;20157;-81
2023/10/27 10:30:34;;;;;;;0.90;0.60;;;;;;;23.58;47.35;90973.06;2055312;69;20185;-81
2023/10/27 10:33:28;;;;;;;2.70;0.80;;;;;;;23.68;45.05;90964.31;2055290;69;20582;-80
2023/10/27 10:36:15;;;;;;;1.00;0.70;;;;;;;22.56;46.60;90982.94;2054838;70;20177;-81
2023/10/27 10:38:55;;;;;;;1.10;0.50;;;;;;;24.22;45.40;90979.25;2054656;69;20161;-80
2023/10/27 10:41:47;;;;;;;2.20;0.57;;;;;;;26.17;43.29;90970.28;2055309;69;20139;-81
2023/10/27 10:44:16;;;;;;;0.75;0.60;;;;;;;26.59;41.24;90965.63;2055362;69;20181;-81
2023/10/27 10:46:43;;;;;;;1.70;0.40;;;;;;;24.59;40.37;90972.88;2055298;69;20162;-81
2023/10/27 10:49:22;;;;;;;2.50;0.50;;;;;;;26.05;40.60;90979.91;2055181;69;20158;-80
2023/10/27 10:51:58;;;;;;;3.03;0.52;;;;;;;26.57;39.52;90982.97;2055257;69;20146;-82
2023/10/27 10:54:41;;;;;;;0.85;0.50;;;;;;;26.43;39.29;90969.63;2055193;69;20208;-81
2023/10/27 10:57:11;;;;;;;0.35;0.35;;;;;;;25.07;41.93;90965.47;2055299;69;20152;-80
2023/10/27 10:59:37;;;;;;;4.05;0.70;;;;;;;25.10;41.91;90966.13;2055391;70;20708;-80
2023/10/27 11:02:04;;;;;;;1.67;0.90;;;;;;;22.30;45.88;90972.44;2055241;69;20590;-80
2023/10/27 11:04:31;;;;;;;1.02;0.77;;;;;;;22.57;45.65;90962.13;2055342;69;20142;-79
2023/10/27 11:06:59;;;;;;;1.42;0.60;;;;;;;22.64;44.53;90957.03;2055306;69;20145;-80
2023/10/27 11:09:24;;;;;;;0.60;0.50;;;;;;;22.47;43.69;90964.41;2055279;69;20628;-81
2023/10/27 11:11:50;;;;;;;4.70;0.70;;;;;;;23.25;46.58;90958.47;2055235;69;20173;-80
2023/10/27 11:14:15;;;;;;;0.77;0.60;;;;;;;23.00;42.02;90969.53;2055313;69;20180;-81
2023/10/27 11:16:41;;;;;;;0.63;0.50;;;;;;;21.08;45.85;90954.03;2055292;69;20212;-82
2023/10/27 11:19:18;;;;;;;0.98;0.60;;;;;;;22.45;45.96;90959.41;2055144;69;20138;-82
2023/10/27 11:21:43;;;;;;;1.05;0.70;;;;;;;23.31;44.87;90961.22;2055275;70;20600;-81
2023/10/27 11:24:10;;;;;;;2.40;0.70;;;;;;;22.65;44.06;90963.50;2055250;69;20246;-82
2023/10/27 11:26:43;;;;;;;0.93;0.50;;;;;;;21.98;46.95;90959.13;2055243;69;20233;-81
2023/10/27 11:29:08;;;;;;;1.08;0.57;;;;;;;24.18;41.82;90947.69;2055270;69;20318;-81
2023/10/27 11:31:42;;;;;;;1.13;0.75;;;;;;;24.42;38.82;90937.97;2055123;69;20540;-80
2023/10/27 11:34:13;;;;;;;1.00;0.68;;;;;;;23.73;42.39;90959.22;2057304;69;20629;-80